• Join FlightAware (Why Join?)
  • Login
  • US Flag 
10:47AM EDT


 

Airport Tracker/Info


-or-


 

Live Flight TrackerFlight Track Log ✈ SKW4473 ✈ 26-Apr-2013 ✈ KSLC - KHLN

Flight Track Log - Related Links

Times and Time Zones

All times are in EDT time to prevent confusion due to time zone crossing. See the SKW4473 flight status page for this flight to view local times or setup timezone preferences in your user account.

Time Position Orientation Groundspeed Altitude Reporting Facility
EDT Latitude Longitude Course Direction KTS MPH feet Rate Location/Type
01:13PM 40.7692 -111.9978 50° Northeast 185 213 5,000  Level Salt Lake Center
01:14PM 40.7567 -112.0756 258° West 231 266 7,600 1,800 Climbing Salt Lake Center
01:15PM 40.7908 -112.1111 322° Northwest 258 297 8,600 1,920 Climbing Salt Lake Center
01:15PM 40.8181 -112.1369 324° Northwest 281 323 9,600 2,460 Climbing Salt Lake Center
01:16PM 41.0144 -112.1181 81° East  Level FlightAware Approximate
01:16PM 40.8658 -112.1347 North 289 333 11,200  Level Salt Lake Center
01:17PM 41.0878 -112.0096 50° Northeast  Level FlightAware Approximate
01:17PM 40.9572 -112.1336 North 326 375 12,900  Level Salt Lake Center
01:18PM 41.1661 -111.8867 50° Northeast  Level FlightAware Approximate
01:18PM 41.0461 -112.1314 North 313 360 16,100  Level Salt Lake Center
01:19PM 41.1508 -112.1289 North 310 357 18,200 1,860 Climbing Salt Lake Center
01:20PM 41.2419 -112.1272 North 325 374 20,000 1,560 Climbing Salt Lake Center
01:21PM 41.3344 -112.1244 North 330 380 21,500 1,440 Climbing Salt Lake Center
01:22PM 41.4283 -112.1219 North 336 387 23,000 1,440 Climbing Salt Lake Center
01:23PM 41.5231 -112.1194 North 338 389 24,500 1,260 Climbing Salt Lake Center
01:24PM 41.6172 -112.1178 North 340 391 25,600 780 Climbing Salt Lake Center
01:25PM 41.7156 -112.1156 North 353 406 26,200 600 Climbing Salt Lake Center
01:26PM 41.8183 -112.1119 North 368 423 26,900 960 Climbing Salt Lake Center
01:27PM 41.9450 -112.1089 North 378 435 28,200 1,260 Climbing Salt Lake Center
01:28PM 42.0467 -112.1061 North 367 422 29,600 1,140 Climbing Salt Lake Center
01:29PM 42.1458 -112.1033 North 357 411 30,600 720 Climbing Salt Lake Center
01:30PM 42.2458 -112.1025 360° North 360 414 31,100 480 Climbing Salt Lake Center
01:31PM 42.3492 -112.0989 North 371 427 31,600 420 Climbing Salt Lake Center
01:32PM 42.4544 -112.0964 North 377 434 32,000 180 Climbing Salt Lake Center
01:33PM 42.5853 -112.0922 North 392 451 32,000  Level Salt Lake Center
01:34PM 42.6964 -112.0894 North 399 459 32,000  Level Salt Lake Center
01:35PM 42.8136 -112.0856 North 396 456 32,000  Level Salt Lake Center
01:36PM 42.9175 -112.0836 North 389 448 32,000  Level Salt Lake Center
01:37PM 43.0189 -112.0814 North 380 437 32,000  Level Salt Lake Center
01:39PM 43.1356 -112.0778 North 377 434 32,000  Level Salt Lake Center
01:40PM 43.2358 -112.0747 North 375 432 32,000  Level Salt Lake Center
01:41PM 43.3508 -112.0733 North 370 426 32,000  Level Salt Lake Center
01:42PM 43.4506 -112.0692 North 374 430 32,000  Level Salt Lake Center
01:43PM 43.5708 -112.0675 North 385 443 32,000  Level Salt Lake Center
01:44PM 43.6769 -112.0639 North 395 455 32,000  Level Salt Lake Center
01:45PM 43.8028 -112.0606 North 402 463 32,000  Level Salt Lake Center
01:46PM 43.9111 -112.0564 North 406 467 32,000  Level Salt Lake Center
01:47PM 44.0344 -112.0536 North 399 459 32,000  Level Salt Lake Center
01:48PM 44.1397 -112.0522 North 396 456 32,000  Level Salt Lake Center
01:49PM 44.2394 -112.0494 North 379 436 32,000  Level Salt Lake Center
01:50PM 44.3553 -112.0450 North 372 428 32,000  Level Salt Lake Center
01:51PM 44.4558 -112.0433 North 373 429 32,000  Level Salt Lake Center
01:52PM 44.5761 -112.0392 North 382 440 32,000  Level Salt Lake Center
01:53PM 44.6800 -112.0378 North 387 445 32,000  Level Salt Lake Center
01:54PM 44.8025 -112.0336 North 392 451 32,000  Level Salt Lake Center
01:55PM 44.9086 -112.0300 North 396 456 32,000  Level Salt Lake Center
01:56PM 45.0331 -112.0267 North 399 459 32,000  Level Salt Lake Center
01:57PM 45.1389 -112.0242 North 401 461 32,000 -120 Level Salt Lake Center
01:58PM 45.2517 -112.0208 North 404 465 31,800 -1,380 Descending Salt Lake Center
01:59PM 45.3625 -112.0178 North 400 460 29,200 -2,460 Descending Salt Lake Center
02:00PM 45.4719 -112.0161 North 392 451 26,800 -2,460 Descending Salt Lake Center
02:01PM 45.5747 -112.0122 North 373 429 24,200 -2,760 Descending Salt Lake Center
02:02PM 45.6967 -112.0092 North 365 420 21,200 -2,640 Descending Salt Lake Center
02:03PM 45.7969 -112.0056 North 359 413 18,800 -2,040 Descending Salt Lake Center
02:04PM 45.8911 -112.0019 North 340 391 17,000 -1,860 Descending Salt Lake Center
02:05PM 45.9803 -112.0008 360° North 323 372 15,000 -1,500 Descending Salt Lake Center
02:06PM 46.0678 -111.9978 North 316 364 14,000 -540 Descending Salt Lake Center
02:07PM 46.1522 -111.9961 North 304 350 14,000  Level Salt Lake Center
02:09PM 46.2383 -111.9808 North 310 357 14,100 -840 Climbing Salt Lake Center
02:10PM 46.3342 -111.9269 21° North 308 354 12,300 -1,800 Descending Salt Lake Center